Bol'shoy Kamen', Russia
Current Conditions -  °F | °C
As of 2:00 AM on Monday 24 Nov 2014 (Local Time) from UHWW Reporting Station
Overcast Overcast  
Wind Chill: 34°   Ceiling: 3000
Heat Index: 34°   Visibility: 6mi
Dew Point: 21°   Wind: 0mph
Humidity: 60%   Direction: NA
Pressure: 30.15"   Gusts: NA
Location:  43.13°N, 132.47°E
Report Text: UHWW 231600Z 00000MPS 9999 BKN030 OVC100 01/M06 Q1021 NOSIG RMKQFE764/1019 25CLRD70
Loading
Personal Weather Stations






























Interactive Weather Map New forecast layout! Learn more

10-Day Weather Forecast

Advertisements
Track Severe Weather on mobile